Quiberon — FNQY — position and weather

sailwx.info

Track history (hours):
 
Tides and Currents Weather Stations Pressure Air Temp Water Temp Dewpoint Dewpoint Depression Visibility Wind Speed Wind Dir Waves Ship Positions

Quiberon

Operator: Brittany Ferries

Last reported at 2019-Aug-24 07:28 UTC. Time now 2019-Aug-24 07:41 UTC.
Position N 44°53' W 000°32'.

Length 25 m; draft 4.8 m.

Type: Tug. MMSI: 228296800.

Date/timePositionNaut miles runAvg speedWind from/ knotsBaromVisibWave heightAir tempDewpointWater temp
2019-Aug-24 07:28N 44°53' W 000°32'33 1.5
2019-Aug-23 10:15N 45°23' W 000°50'311.4
2019-Aug-23 10:00N 45°25' W 000°52'611.5
2019-Aug-23 09:30N 45°30' W 000°58'4 8.7
2019-Aug-23 09:01N 45°32' W 001°02'0 0.0
2019-Aug-23 08:30N 45°32' W 001°02'0 0.0
2019-Aug-23 08:00N 45°32' W 001°02'0 0.0
2019-Aug-23 07:31N 45°32' W 001°02'0 0.0
2019-Aug-23 07:00N 45°32' W 001°02'0 0.0
2019-Aug-23 06:30N 45°32' W 001°02'0 0.0
2019-Aug-23 06:00N 45°32' W 001°02'0 0.0
2019-Aug-23 05:30N 45°32' W 001°02'0 0.0
2019-Aug-23 05:00N 45°32' W 001°02'0 0.0
2019-Aug-23 04:31N 45°32' W 001°02'0 0.0
2019-Aug-23 04:00N 45°32' W 001°02'0 0.0
2019-Aug-23 03:30N 45°32' W 001°02'0 0.0
2019-Aug-23 03:00N 45°32' W 001°02'0 0.4
2019-Aug-23 02:30N 45°32' W 001°02'4 8.9
2019-Aug-23 02:00N 45°30' W 000°57'510.2
2019-Aug-23 01:30N 45°26' W 000°52'2110.0
2019-Aug-22 23:24N 45°06' W 000°41'3 8.4
2019-Aug-22 23:00N 45°04' W 000°38'4 7.7
2019-Aug-22 22:31N 45°01' W 000°35'3 6.4
2019-Aug-22 22:00N 44°58' W 000°32'3 5.6
2019-Aug-22 21:28N 44°55' W 000°33'2 0.0
2019-Aug-21 04:22N 44°53' W 000°32'0 0.0
2019-Aug-21 03:43N 44°53' W 000°32'0 0.0
2019-Aug-21 03:27N 44°53' W 000°32'0 0.0
2019-Aug-21 02:45N 44°53' W 000°32'0 0.0
2019-Aug-21 02:02N 44°53' W 000°32'0 0.0
2019-Aug-21 01:59N 44°53' W 000°32'0 0.0
2019-Aug-21 01:30N 44°53' W 000°32'0 0.0
2019-Aug-21 01:01N 44°53' W 000°32'0 0.0
2019-Aug-21 00:30N 44°53' W 000°32'0 0.0
2019-Aug-20 23:57N 44°53' W 000°32'0 0.0
2019-Aug-20 23:30N 44°53' W 000°32'0 0.0
2019-Aug-20 23:00N 44°53' W 000°32'  
2019-Aug-17 01:23N 44°53' W 000°32'0 0.0
2019-Aug-17 00:18N 44°53' W 000°32'0 0.0
2019-Aug-16 23:58N 44°53' W 000°32'0 0.0
2019-Aug-16 23:26N 44°53' W 000°32'7 0.4
2019-Aug-16 07:21N 45°00' W 000°34'1 2.2
2019-Aug-16 06:50N 45°01' W 000°35'0 0.2
2019-Aug-16 06:28N 45°01' W 000°35'  
Track history (hours):
 
Tides and Currents Weather Stations Pressure Air Temp Water Temp Dewpoint Dewpoint Depression Visibility Wind Speed Wind Dir Waves Ship Positions

Quiberon

Operator: Brittany Ferries

Last reported at 2019-Aug-24 07:28 UTC. Time now 2019-Aug-24 07:41 UTC.
Position N 44°53' W 000°32'.

Length 25 m; draft 4.8 m.

Type: Tug. MMSI: 228296800.

Date/timePositionNaut miles runAvg speedWind from/ knotsBaromVisibWave heightAir tempDewpointWater temp
2019-Aug-24 07:28N 44°53' W 000°32'33 1.5
2019-Aug-23 10:15N 45°23' W 000°50'311.4
2019-Aug-23 10:00N 45°25' W 000°52'611.5
2019-Aug-23 09:30N 45°30' W 000°58'4 8.7
2019-Aug-23 09:01N 45°32' W 001°02'0 0.0
2019-Aug-23 08:30N 45°32' W 001°02'0 0.0
2019-Aug-23 08:00N 45°32' W 001°02'0 0.0
2019-Aug-23 07:31N 45°32' W 001°02'0 0.0
2019-Aug-23 07:00N 45°32' W 001°02'0 0.0
2019-Aug-23 06:30N 45°32' W 001°02'0 0.0
2019-Aug-23 06:00N 45°32' W 001°02'0 0.0
2019-Aug-23 05:30N 45°32' W 001°02'0 0.0
2019-Aug-23 05:00N 45°32' W 001°02'0 0.0
2019-Aug-23 04:31N 45°32' W 001°02'0 0.0
2019-Aug-23 04:00N 45°32' W 001°02'0 0.0
2019-Aug-23 03:30N 45°32' W 001°02'0 0.0
2019-Aug-23 03:00N 45°32' W 001°02'0 0.4
2019-Aug-23 02:30N 45°32' W 001°02'4 8.9
2019-Aug-23 02:00N 45°30' W 000°57'510.2
2019-Aug-23 01:30N 45°26' W 000°52'2110.0
2019-Aug-22 23:24N 45°06' W 000°41'3 8.4
2019-Aug-22 23:00N 45°04' W 000°38'4 7.7
2019-Aug-22 22:31N 45°01' W 000°35'3 6.4
2019-Aug-22 22:00N 44°58' W 000°32'3 5.6
2019-Aug-22 21:28N 44°55' W 000°33'2 0.0
2019-Aug-21 04:22N 44°53' W 000°32'0 0.0
2019-Aug-21 03:43N 44°53' W 000°32'0 0.0
2019-Aug-21 03:27N 44°53' W 000°32'0 0.0
2019-Aug-21 02:45N 44°53' W 000°32'0 0.0
2019-Aug-21 02:02N 44°53' W 000°32'0 0.0
2019-Aug-21 01:59N 44°53' W 000°32'0 0.0
2019-Aug-21 01:30N 44°53' W 000°32'0 0.0
2019-Aug-21 01:01N 44°53' W 000°32'0 0.0
2019-Aug-21 00:30N 44°53' W 000°32'0 0.0
2019-Aug-20 23:57N 44°53' W 000°32'0 0.0
2019-Aug-20 23:30N 44°53' W 000°32'0 0.0
2019-Aug-20 23:00N 44°53' W 000°32'  
2019-Aug-17 01:23N 44°53' W 000°32'0 0.0
2019-Aug-17 00:18N 44°53' W 000°32'0 0.0
2019-Aug-16 23:58N 44°53' W 000°32'0 0.0
2019-Aug-16 23:26N 44°53' W 000°32'7 0.4
2019-Aug-16 07:21N 45°00' W 000°34'1 2.2
2019-Aug-16 06:50N 45°01' W 000°35'0 0.2
2019-Aug-16 06:28N 45°01' W 000°35'  

Dump ship's entire track history